createdAt,value
2022-08-19T00:00:32.609Z,20.20
2022-08-19T00:05:26.473Z,20.20
2022-08-19T00:07:53.256Z,20.20
2022-08-19T00:10:20.794Z,20.20
2022-08-19T00:12:48.133Z,20.10
2022-08-19T00:18:04.817Z,20.10
2022-08-19T00:23:18.287Z,20.00
2022-08-19T00:28:32.882Z,20.00
2022-08-19T00:31:05.048Z,20.00
2022-08-19T00:33:33.017Z,19.90
2022-08-19T00:38:48.393Z,20.00
2022-08-19T00:41:16.766Z,20.10
2022-08-19T00:43:43.644Z,20.10
2022-08-19T00:46:10.611Z,20.00
2022-08-19T00:48:37.583Z,20.00
2022-08-19T00:51:06.333Z,19.90
2022-08-19T00:56:20.539Z,19.90
2022-08-19T00:58:47.611Z,19.80
2022-08-19T01:01:14.453Z,19.80
2022-08-19T01:03:56.757Z,19.80
2022-08-19T01:06:26.452Z,19.80
2022-08-19T01:08:53.351Z,19.70
2022-08-19T01:11:20.120Z,19.70
2022-08-19T01:13:50.123Z,19.70
2022-08-19T01:19:15.176Z,19.60
2022-08-19T01:21:47.647Z,19.60
2022-08-19T01:24:14.416Z,19.60
2022-08-19T01:29:31.166Z,19.60
2022-08-19T01:34:45.857Z,19.60
2022-08-19T01:37:12.869Z,19.50
2022-08-19T01:39:41.187Z,19.50
2022-08-19T01:42:09.558Z,19.50
2022-08-19T01:44:36.454Z,19.50
2022-08-19T01:47:03.894Z,19.40
2022-08-19T01:49:31.262Z,19.40
2022-08-19T01:51:58.131Z,19.40
2022-08-19T01:54:27.744Z,19.40
2022-08-19T01:57:00.687Z,19.40
2022-08-19T01:59:28.745Z,19.40
2022-08-19T02:04:42.287Z,19.40
2022-08-19T02:09:56.148Z,19.40
2022-08-19T02:12:23.273Z,19.40
2022-08-19T02:14:50.061Z,19.40
2022-08-19T02:17:16.886Z,19.40
2022-08-19T02:19:43.657Z,19.30
2022-08-19T02:22:10.408Z,19.40
2022-08-19T02:27:24.407Z,19.40
2022-08-19T02:32:44.466Z,19.40
2022-08-19T02:35:14.120Z,19.30
2022-08-19T02:37:42.545Z,19.30
2022-08-19T02:40:12.750Z,19.30
2022-08-19T02:42:40.216Z,19.30
2022-08-19T02:45:07.563Z,19.30
2022-08-19T02:47:35.111Z,19.30
2022-08-19T02:50:03.256Z,19.20
2022-08-19T02:52:30.042Z,19.20
2022-08-19T02:54:56.812Z,19.20
2022-08-19T02:57:23.614Z,19.30
2022-08-19T03:02:37.239Z,19.20
2022-08-19T03:05:05.498Z,19.20
2022-08-19T03:07:32.330Z,19.30
2022-08-19T03:09:59.398Z,19.20
2022-08-19T03:12:26.609Z,19.20
2022-08-19T03:14:53.452Z,19.20
2022-08-19T03:17:20.573Z,19.20
2022-08-19T03:19:47.378Z,19.20
2022-08-19T03:22:14.169Z,19.30
2022-08-19T03:27:32.540Z,19.20
2022-08-19T03:30:01.578Z,19.20
2022-08-19T03:32:32.964Z,19.30
2022-08-19T03:37:46.798Z,19.30
2022-08-19T03:40:13.592Z,19.10
2022-08-19T03:42:49.550Z,19.10
2022-08-19T03:47:43.455Z,19.10
2022-08-19T03:50:10.406Z,19.10
2022-08-19T03:52:37.236Z,19.20
2022-08-19T03:55:04.541Z,19.10
2022-08-19T03:57:32.029Z,19.20
2022-08-19T04:00:12.518Z,19.10
2022-08-19T04:02:41.492Z,19.20
2022-08-19T04:05:08.530Z,19.10
2022-08-19T04:07:35.298Z,19.10
2022-08-19T04:12:48.872Z,19.10
2022-08-19T04:18:03.252Z,19.10
2022-08-19T04:20:30.677Z,19.00
2022-08-19T04:22:58.134Z,19.10
2022-08-19T04:25:24.926Z,19.10
2022-08-19T04:27:51.714Z,19.10
2022-08-19T04:30:18.563Z,19.10
2022-08-19T04:35:43.624Z,19.00
2022-08-19T04:38:11.794Z,19.00
2022-08-19T04:40:43.713Z,19.00
2022-08-19T04:43:11.013Z,19.00
2022-08-19T04:45:43.633Z,19.10
2022-08-19T04:48:26.327Z,19.10
2022-08-19T04:50:58.216Z,19.10
2022-08-19T04:56:18.231Z,19.10
2022-08-19T04:58:46.115Z,19.20
2022-08-19T05:01:15.851Z,19.20
2022-08-19T05:06:29.430Z,19.30
2022-08-19T05:11:26.756Z,19.30
2022-08-19T05:13:53.821Z,19.30
2022-08-19T05:16:23.037Z,19.30
2022-08-19T05:18:51.291Z,19.40
2022-08-19T05:21:20.767Z,19.40
2022-08-19T05:23:47.559Z,19.40
2022-08-19T05:26:14.334Z,19.40
2022-08-19T05:28:41.105Z,19.40
2022-08-19T05:31:07.901Z,19.40
2022-08-19T05:36:21.380Z,19.40
2022-08-19T05:41:35.187Z,19.50
2022-08-19T05:44:05.370Z,19.40
2022-08-19T05:46:32.445Z,19.50
2022-08-19T05:51:46.101Z,19.70
2022-08-19T05:57:01.476Z,19.50
2022-08-19T05:59:28.294Z,19.50
2022-08-19T06:01:58.481Z,19.60
2022-08-19T06:04:25.486Z,19.60
2022-08-19T06:06:54.575Z,19.60
2022-08-19T06:09:22.727Z,19.60
2022-08-19T06:11:55.725Z,19.70
2022-08-19T06:14:28.055Z,19.60
2022-08-19T06:16:55.196Z,19.60
2022-08-19T06:19:23.432Z,19.70
2022-08-19T06:21:51.666Z,19.70
2022-08-19T06:27:10.766Z,19.70
2022-08-19T06:29:37.606Z,19.80
2022-08-19T06:32:04.684Z,19.80
2022-08-19T06:34:34.999Z,19.80
2022-08-19T06:37:02.372Z,19.90
2022-08-19T06:39:32.249Z,19.90
2022-08-19T06:42:01.377Z,19.90
2022-08-19T06:44:31.831Z,20.00
2022-08-19T06:46:58.743Z,19.90
2022-08-19T06:49:25.682Z,19.90
2022-08-19T06:51:52.579Z,19.90
2022-08-19T06:54:20.506Z,19.90
2022-08-19T06:56:47.830Z,20.00
2022-08-19T06:59:18.204Z,20.00
2022-08-19T07:01:48.575Z,20.00
2022-08-19T07:04:20.360Z,20.00
2022-08-19T07:06:55.076Z,20.00
2022-08-19T07:09:22.797Z,20.00
2022-08-19T07:11:51.922Z,20.10
2022-08-19T07:14:21.894Z,20.10
2022-08-19T07:16:51.345Z,20.10
2022-08-19T07:22:09.028Z,20.20
2022-08-19T07:24:40.186Z,20.20
2022-08-19T07:27:17.900Z,20.40
2022-08-19T07:29:44.640Z,20.40
2022-08-19T07:32:11.558Z,20.40
2022-08-19T07:37:32.042Z,20.50
2022-08-19T07:40:00.222Z,20.60
2022-08-19T07:42:27.203Z,20.60
2022-08-19T07:44:53.977Z,20.60
2022-08-19T07:47:50.390Z,20.70
2022-08-19T07:52:57.467Z,20.50
2022-08-19T07:58:16.006Z,20.70
2022-08-19T08:00:44.131Z,20.70
2022-08-19T08:03:11.488Z,20.50
2022-08-19T08:05:41.787Z,20.50
2022-08-19T08:08:10.365Z,20.60
2022-08-19T08:10:37.138Z,20.60
2022-08-19T08:15:50.866Z,20.50
2022-08-19T08:18:19.740Z,20.60
2022-08-19T08:20:46.517Z,20.60
2022-08-19T08:23:13.283Z,20.60
2022-08-19T08:25:40.124Z,20.60
2022-08-19T08:28:07.034Z,20.60
2022-08-19T08:33:00.765Z,20.80
2022-08-19T08:35:29.769Z,20.80
2022-08-19T08:37:56.967Z,20.80
2022-08-19T08:40:23.883Z,20.90
2022-08-19T08:43:18.676Z,21.00
2022-08-19T08:46:13.165Z,21.00
2022-08-19T08:48:53.083Z,21.00
2022-08-19T08:51:34.468Z,21.10
2022-08-19T08:54:05.302Z,21.20
2022-08-19T08:56:32.611Z,21.30
2022-08-19T09:02:21.394Z,21.20
2022-08-19T09:04:48.309Z,21.20
2022-08-19T09:07:41.514Z,21.20
2022-08-19T09:10:34.225Z,21.10
2022-08-19T09:13:25.689Z,21.10
2022-08-19T09:16:01.581Z,21.10
2022-08-19T09:18:50.835Z,21.00
2022-08-19T09:24:05.312Z,21.10
2022-08-19T09:26:47.243Z,21.10
2022-08-19T09:29:15.734Z,21.10
2022-08-19T09:31:44.580Z,21.20
2022-08-19T09:34:21.213Z,21.00
2022-08-19T09:39:36.256Z,20.90
2022-08-19T09:42:03.525Z,20.90
2022-08-19T09:44:31.170Z,21.00
2022-08-19T09:46:58.127Z,21.00
2022-08-19T09:49:24.941Z,21.10
2022-08-19T09:51:53.230Z,21.00
2022-08-19T09:57:06.896Z,21.00
2022-08-19T10:02:22.096Z,20.90
2022-08-19T10:04:49.381Z,20.90
2022-08-19T10:07:16.419Z,20.90
2022-08-19T10:09:43.476Z,21.00
2022-08-19T10:12:13.737Z,20.90
2022-08-19T10:14:44.672Z,20.90
2022-08-19T10:19:58.107Z,20.80
2022-08-19T10:22:25.688Z,20.90
2022-08-19T10:24:53.091Z,20.80
2022-08-19T10:27:19.877Z,20.90
2022-08-19T10:29:46.987Z,20.90
2022-08-19T10:32:14.299Z,20.90
2022-08-19T10:37:29.033Z,21.00
2022-08-19T10:39:58.432Z,21.10
2022-08-19T10:42:25.392Z,21.10
2022-08-19T10:44:52.260Z,21.10
2022-08-19T10:47:25.613Z,21.10
2022-08-19T10:49:56.451Z,21.20
2022-08-19T10:52:27.259Z,21.20
2022-08-19T10:54:59.389Z,21.40
2022-08-19T10:58:01.379Z,21.40
2022-08-19T11:00:23.469Z,21.40
2022-08-19T11:02:50.561Z,21.40
2022-08-19T11:05:18.488Z,21.40
2022-08-19T11:10:32.676Z,21.40
2022-08-19T11:12:59.433Z,21.40
2022-08-19T11:15:26.220Z,21.40
2022-08-19T11:17:53.226Z,21.50
2022-08-19T11:20:20.122Z,21.60
2022-08-19T11:22:46.984Z,21.60
2022-08-19T11:28:02.132Z,21.60
2022-08-19T11:30:28.958Z,21.60
2022-08-19T11:32:55.715Z,21.60
2022-08-19T11:35:22.481Z,21.60
2022-08-19T11:37:49.273Z,21.40
2022-08-19T11:40:16.172Z,21.50
2022-08-19T11:45:30.952Z,21.30
2022-08-19T11:50:44.701Z,21.20
2022-08-19T11:53:11.484Z,21.30
2022-08-19T11:55:43.425Z,21.40
2022-08-19T12:00:58.770Z,21.70
2022-08-19T12:06:15.762Z,21.90
2022-08-19T12:08:44.237Z,21.90
2022-08-19T12:11:12.958Z,22.00
2022-08-19T12:13:39.706Z,21.90
2022-08-19T12:16:11.338Z,22.10
2022-08-19T12:18:38.640Z,22.40
2022-08-19T12:23:55.843Z,22.70
2022-08-19T12:26:23.258Z,22.80
2022-08-19T12:28:50.071Z,22.80
2022-08-19T12:34:04.182Z,22.80
2022-08-19T12:39:17.675Z,22.70
2022-08-19T12:41:51.268Z,22.50
2022-08-19T12:44:29.597Z,22.50
2022-08-19T12:46:59.914Z,22.60
2022-08-19T12:49:53.458Z,22.70
2022-08-19T12:52:16.776Z,22.80
2022-08-19T12:54:50.190Z,22.90
2022-08-19T12:57:31.996Z,23.10
2022-08-19T13:00:07.427Z,23.30
2022-08-19T13:02:38.951Z,23.50
2022-08-19T13:05:07.873Z,24.10
2022-08-19T13:07:34.629Z,24.40
2022-08-19T13:10:01.864Z,24.50
2022-08-19T13:12:28.667Z,25.10
2022-08-19T13:14:56.672Z,25.10
2022-08-19T13:17:23.528Z,25.20
2022-08-19T13:24:55.129Z,24.80
2022-08-19T13:27:21.998Z,24.70
2022-08-19T13:32:35.445Z,24.90
2022-08-19T13:35:03.570Z,25.10
2022-08-19T13:37:30.416Z,24.80
2022-08-19T13:39:57.300Z,25.10
2022-08-19T13:42:24.081Z,25.20
2022-08-19T13:44:50.829Z,25.20
2022-08-19T13:47:17.610Z,24.90
2022-08-19T13:52:31.224Z,24.90
2022-08-19T13:57:44.983Z,25.00
2022-08-19T14:00:17.097Z,24.90
2022-08-19T14:02:43.890Z,24.80
2022-08-19T14:05:13.743Z,24.70
2022-08-19T14:07:40.565Z,24.40
2022-08-19T14:12:59.598Z,24.50
2022-08-19T14:15:28.213Z,24.50
2022-08-19T14:17:55.401Z,24.40
2022-08-19T14:20:26.300Z,24.40
2022-08-19T14:22:53.982Z,24.30
2022-08-19T14:25:25.495Z,24.10
2022-08-19T14:27:52.585Z,23.60
2022-08-19T14:30:23.746Z,23.60
2022-08-19T14:32:50.509Z,23.50
2022-08-19T14:35:17.609Z,23.20
2022-08-19T14:37:46.152Z,23.20
2022-08-19T14:43:04.675Z,23.00
2022-08-19T14:45:37.470Z,22.70
2022-08-19T14:48:05.574Z,22.40
2022-08-19T14:53:20.030Z,22.30
2022-08-19T14:55:47.666Z,22.00
2022-08-19T14:58:29.567Z,22.00
2022-08-19T15:00:59.266Z,21.70
2022-08-19T15:03:26.090Z,21.50
2022-08-19T15:05:53.086Z,21.40
2022-08-19T15:08:19.919Z,21.40
2022-08-19T15:10:46.696Z,21.30
2022-08-19T15:13:13.477Z,21.20
2022-08-19T15:15:40.246Z,21.20
2022-08-19T15:18:07.018Z,21.10
2022-08-19T15:23:21.262Z,21.10
2022-08-19T15:25:48.147Z,21.00
2022-08-19T15:28:15.029Z,21.00
2022-08-19T15:30:41.993Z,20.90
2022-08-19T15:33:10.960Z,21.00
2022-08-19T15:35:37.778Z,21.00
2022-08-19T15:40:51.598Z,20.90
2022-08-19T15:43:19.837Z,20.90
2022-08-19T15:45:49.446Z,20.90
2022-08-19T15:48:16.435Z,20.90
2022-08-19T15:50:43.230Z,20.80
2022-08-19T15:53:11.019Z,20.80
2022-08-19T15:55:44.027Z,20.80
2022-08-19T15:58:20.532Z,20.90
2022-08-19T16:01:04.012Z,20.90
2022-08-19T16:03:40.201Z,20.80
2022-08-19T16:06:08.273Z,20.90
2022-08-19T16:08:48.779Z,20.90
2022-08-19T16:11:20.152Z,20.80
2022-08-19T16:13:49.098Z,20.90
2022-08-19T16:19:06.533Z,20.90
2022-08-19T16:21:37.486Z,20.90
2022-08-19T16:24:07.762Z,21.00
2022-08-19T16:29:34.497Z,21.30
2022-08-19T16:32:09.798Z,21.50
2022-08-19T16:34:37.595Z,21.80
2022-08-19T16:37:04.427Z,21.80
2022-08-19T16:39:31.778Z,22.00
2022-08-19T16:41:59.062Z,22.00
2022-08-19T16:44:26.368Z,21.90
2022-08-19T16:46:58.599Z,22.00
2022-08-19T16:49:53.211Z,22.00
2022-08-19T16:52:18.546Z,22.00
2022-08-19T16:54:45.831Z,21.90
2022-08-19T16:57:13.017Z,21.90
2022-08-19T16:59:48.090Z,21.70
2022-08-19T17:02:20.242Z,21.60
2022-08-19T17:04:57.932Z,21.70
2022-08-19T17:10:16.394Z,21.50
2022-08-19T17:12:43.175Z,21.50
2022-08-19T17:15:10.058Z,21.40
2022-08-19T17:17:36.843Z,21.50
2022-08-19T17:20:05.033Z,21.40
2022-08-19T17:22:31.837Z,21.40
2022-08-19T17:27:45.324Z,21.30
2022-08-19T17:33:00.732Z,21.20
2022-08-19T17:35:27.507Z,21.10
2022-08-19T17:37:54.391Z,21.10
2022-08-19T17:40:23.829Z,21.00
2022-08-19T17:42:51.033Z,21.00
2022-08-19T17:45:17.851Z,20.90
2022-08-19T17:50:32.812Z,20.90
2022-08-19T17:52:59.586Z,20.90
2022-08-19T17:55:26.659Z,20.80
2022-08-19T17:57:53.764Z,20.80
2022-08-19T18:00:22.193Z,20.80
2022-08-19T18:02:52.581Z,20.70
2022-08-19T18:05:29.078Z,20.70
2022-08-19T18:07:57.101Z,20.70
2022-08-19T18:10:32.023Z,20.70
2022-08-19T18:13:01.894Z,20.70
2022-08-19T18:15:44.248Z,20.70
2022-08-19T18:18:15.163Z,20.60
2022-08-19T18:20:43.237Z,20.60
2022-08-19T18:23:43.935Z,20.60
2022-08-19T18:25:57.106Z,20.50
2022-08-19T18:28:23.883Z,20.50
2022-08-19T18:30:50.729Z,20.40
2022-08-19T18:33:17.537Z,20.40
2022-08-19T18:35:49.131Z,20.40
2022-08-19T18:38:18.171Z,20.40
2022-08-19T18:40:44.942Z,20.40
2022-08-19T18:43:11.803Z,20.40
2022-08-19T18:45:43.755Z,20.30
2022-08-19T18:48:18.461Z,20.20
2022-08-19T18:50:53.909Z,20.30
2022-08-19T18:53:20.739Z,20.20
2022-08-19T18:55:47.510Z,20.20
2022-08-19T18:58:14.309Z,20.20
2022-08-19T19:00:41.148Z,20.20
2022-08-19T19:03:07.918Z,20.20
2022-08-19T19:05:34.693Z,20.10
2022-08-19T19:08:01.426Z,20.10
2022-08-19T19:10:28.218Z,20.10
2022-08-19T19:12:55.019Z,20.10
2022-08-19T19:15:21.816Z,20.10
2022-08-19T19:17:48.733Z,19.90
2022-08-19T19:20:15.646Z,20.00
2022-08-19T19:22:42.440Z,20.00
2022-08-19T19:25:09.235Z,19.90
2022-08-19T19:27:36.036Z,19.90
2022-08-19T19:30:02.972Z,19.80
2022-08-19T19:32:30.927Z,19.70
2022-08-19T19:34:57.712Z,19.70
2022-08-19T19:37:24.478Z,19.70
2022-08-19T19:39:51.511Z,19.70
2022-08-19T19:42:21.489Z,19.60
2022-08-19T19:44:50.801Z,19.60
2022-08-19T19:47:18.988Z,19.60
2022-08-19T19:50:10.840Z,19.60
2022-08-19T19:52:33.670Z,19.50
2022-08-19T19:55:00.586Z,19.40
2022-08-19T19:57:27.477Z,19.40
2022-08-19T19:59:54.290Z,19.40
2022-08-19T20:02:21.241Z,19.40
2022-08-19T20:04:48.736Z,19.30
2022-08-19T20:07:15.587Z,19.30
2022-08-19T20:09:58.800Z,19.20
2022-08-19T20:12:26.707Z,19.10
2022-08-19T20:14:53.496Z,19.10
2022-08-19T20:17:20.324Z,19.00
2022-08-19T20:19:47.202Z,19.00
2022-08-19T20:22:13.975Z,19.00
2022-08-19T20:24:40.746Z,19.00
2022-08-19T20:27:07.553Z,18.90
2022-08-19T20:29:39.017Z,18.90
2022-08-19T20:32:10.070Z,18.90
2022-08-19T20:34:37.038Z,18.80
2022-08-19T20:37:03.871Z,18.70
2022-08-19T20:39:30.837Z,18.70
2022-08-19T20:41:57.581Z,18.70
2022-08-19T20:44:24.838Z,18.60
2022-08-19T20:46:54.337Z,18.60
2022-08-19T20:49:27.161Z,18.60
2022-08-19T20:51:55.376Z,18.50
2022-08-19T20:54:22.288Z,18.50
2022-08-19T20:56:49.121Z,18.50
2022-08-19T20:59:15.921Z,18.40
2022-08-19T21:01:42.816Z,18.40
2022-08-19T21:04:09.551Z,18.50
2022-08-19T21:06:36.621Z,18.40
2022-08-19T21:09:03.515Z,18.40
2022-08-19T21:11:30.749Z,18.30
2022-08-19T21:13:57.871Z,18.30
2022-08-19T21:16:24.979Z,18.30
2022-08-19T21:18:51.751Z,18.20
2022-08-19T21:21:18.514Z,18.20
2022-08-19T21:23:45.371Z,18.20
2022-08-19T21:26:12.162Z,18.30
2022-08-19T21:28:38.922Z,18.30
2022-08-19T21:31:07.279Z,18.30
2022-08-19T21:33:34.134Z,18.30
2022-08-19T21:36:01.098Z,18.30
2022-08-19T21:38:27.922Z,18.20
2022-08-19T21:40:55.302Z,18.20
2022-08-19T21:43:22.814Z,18.30
2022-08-19T21:45:49.875Z,18.30
2022-08-19T21:48:17.358Z,18.40
2022-08-19T21:50:48.205Z,18.40
2022-08-19T21:53:19.034Z,18.30
2022-08-19T21:55:52.761Z,18.40
2022-08-19T21:58:20.140Z,18.40
2022-08-19T22:00:57.500Z,18.30
2022-08-19T22:03:25.142Z,18.40
2022-08-19T22:05:52.015Z,18.40
2022-08-19T22:08:18.770Z,18.50
2022-08-19T22:10:45.741Z,18.50
2022-08-19T22:13:13.626Z,18.40
2022-08-19T22:15:40.882Z,18.40
2022-08-19T22:18:07.630Z,18.40
2022-08-19T22:20:34.423Z,18.40
2022-08-19T22:23:03.986Z,18.40
2022-08-19T22:25:38.646Z,18.30
2022-08-19T22:28:10.986Z,18.30
2022-08-19T22:30:41.695Z,18.30
2022-08-19T22:33:14.575Z,18.20
2022-08-19T22:35:42.654Z,18.20
2022-08-19T22:38:10.919Z,18.20
2022-08-19T22:40:42.225Z,18.20
2022-08-19T22:43:12.061Z,18.20
2022-08-19T22:45:39.410Z,18.20
2022-08-19T22:48:08.400Z,18.20
2022-08-19T22:50:37.348Z,18.20
2022-08-19T22:53:05.666Z,18.20
2022-08-19T22:55:32.763Z,18.20
2022-08-19T22:58:00.416Z,18.10
2022-08-19T23:00:28.425Z,18.20
2022-08-19T23:02:57.126Z,18.20
2022-08-19T23:05:27.488Z,18.20
2022-08-19T23:07:54.513Z,18.20
2022-08-19T23:10:27.152Z,18.10
2022-08-19T23:18:45.496Z,18.00
2022-08-19T23:21:12.298Z,18.00
2022-08-19T23:23:39.291Z,18.00
2022-08-19T23:26:06.563Z,17.90
2022-08-19T23:28:38.789Z,17.90
2022-08-19T23:31:05.976Z,17.90
2022-08-19T23:33:50.965Z,17.80
2022-08-19T23:36:19.542Z,17.80
2022-08-19T23:38:48.274Z,17.70
2022-08-19T23:41:16.993Z,17.80
2022-08-19T23:43:44.065Z,17.80
2022-08-19T23:46:13.179Z,17.80
2022-08-19T23:48:40.410Z,17.80
2022-08-19T23:51:09.641Z,17.80
2022-08-19T23:53:38.382Z,17.70
2022-08-19T23:56:06.613Z,17.70
2022-08-19T23:58:36.367Z,17.70
